sensor_id;sensor_type;location;lat;lon;timestamp;P1;durP1;ratioP1;P2;durP2;ratioP2
40373;SDS011;26079;45.958;12.492;2022-10-31T00:00:26;13.88;;;11.48;;
40373;SDS011;26079;45.958;12.492;2022-10-31T00:02:51;20.23;;;10.73;;
40373;SDS011;26079;45.958;12.492;2022-10-31T00:05:17;14.73;;;10.90;;
40373;SDS011;26079;45.958;12.492;2022-10-31T00:07:43;14.88;;;9.77;;
40373;SDS011;26079;45.958;12.492;2022-10-31T00:10:08;11.05;;;10.02;;
40373;SDS011;26079;45.958;12.492;2022-10-31T00:12:34;12.40;;;9.75;;
40373;SDS011;26079;45.958;12.492;2022-10-31T00:15:00;12.98;;;10.25;;
40373;SDS011;26079;45.958;12.492;2022-10-31T00:17:25;12.38;;;10.07;;
40373;SDS011;26079;45.958;12.492;2022-10-31T00:19:51;12.90;;;10.68;;
40373;SDS011;26079;45.958;12.492;2022-10-31T00:22:17;11.45;;;10.20;;
40373;SDS011;26079;45.958;12.492;2022-10-31T00:24:42;12.75;;;11.25;;
40373;SDS011;26079;45.958;12.492;2022-10-31T00:27:08;15.10;;;9.18;;
40373;SDS011;26079;45.958;12.492;2022-10-31T00:29:34;13.05;;;10.50;;
40373;SDS011;26079;45.958;12.492;2022-10-31T00:32:00;10.77;;;8.75;;
40373;SDS011;26079;45.958;12.492;2022-10-31T00:34:25;10.48;;;9.05;;
40373;SDS011;26079;45.958;12.492;2022-10-31T00:36:51;14.63;;;9.98;;
40373;SDS011;26079;45.958;12.492;2022-10-31T00:39:16;10.70;;;8.95;;
40373;SDS011;26079;45.958;12.492;2022-10-31T00:41:42;11.02;;;9.45;;
40373;SDS011;26079;45.958;12.492;2022-10-31T00:44:08;11.20;;;9.32;;
40373;SDS011;26079;45.958;12.492;2022-10-31T00:46:33;14.80;;;11.02;;
40373;SDS011;26079;45.958;12.492;2022-10-31T00:48:59;12.82;;;9.20;;
40373;SDS011;26079;45.958;12.492;2022-10-31T00:51:25;9.95;;;8.88;;
40373;SDS011;26079;45.958;12.492;2022-10-31T00:53:51;9.98;;;9.02;;
40373;SDS011;26079;45.958;12.492;2022-10-31T00:56:16;11.45;;;9.80;;
40373;SDS011;26079;45.958;12.492;2022-10-31T00:58:42;9.68;;;8.77;;
40373;SDS011;26079;45.958;12.492;2022-10-31T01:01:08;12.98;;;8.73;;
40373;SDS011;26079;45.958;12.492;2022-10-31T01:03:33;10.63;;;8.15;;
40373;SDS011;26079;45.958;12.492;2022-10-31T01:06:07;12.75;;;8.48;;
40373;SDS011;26079;45.958;12.492;2022-10-31T01:08:35;16.73;;;9.10;;
40373;SDS011;26079;45.958;12.492;2022-10-31T01:11:09;10.23;;;9.23;;
40373;SDS011;26079;45.958;12.492;2022-10-31T01:13:41;9.13;;;8.18;;
40373;SDS011;26079;45.958;12.492;2022-10-31T01:16:08;8.35;;;7.55;;
40373;SDS011;26079;45.958;12.492;2022-10-31T01:18:36;9.05;;;7.97;;
40373;SDS011;26079;45.958;12.492;2022-10-31T01:21:15;10.27;;;8.70;;
40373;SDS011;26079;45.958;12.492;2022-10-31T01:23:43;9.02;;;8.07;;
40373;SDS011;26079;45.958;12.492;2022-10-31T01:26:13;15.77;;;9.13;;
40373;SDS011;26079;45.958;12.492;2022-10-31T01:28:51;8.88;;;7.88;;
40373;SDS011;26079;45.958;12.492;2022-10-31T01:31:22;13.85;;;8.75;;
40373;SDS011;26079;45.958;12.492;2022-10-31T01:33:50;9.82;;;8.93;;
40373;SDS011;26079;45.958;12.492;2022-10-31T01:38:47;9.25;;;7.78;;
40373;SDS011;26079;45.958;12.492;2022-10-31T01:41:15;13.48;;;9.05;;
40373;SDS011;26079;45.958;12.492;2022-10-31T01:46:27;9.27;;;7.85;;
40373;SDS011;26079;45.958;12.492;2022-10-31T01:48:59;9.20;;;7.17;;
40373;SDS011;26079;45.958;12.492;2022-10-31T01:51:28;8.13;;;7.28;;
40373;SDS011;26079;45.958;12.492;2022-10-31T01:53:58;8.27;;;7.07;;
40373;SDS011;26079;45.958;12.492;2022-10-31T01:56:26;10.43;;;7.88;;
40373;SDS011;26079;45.958;12.492;2022-10-31T01:58:53;10.35;;;7.47;;
40373;SDS011;26079;45.958;12.492;2022-10-31T02:01:21;13.93;;;8.40;;
40373;SDS011;26079;45.958;12.492;2022-10-31T02:03:46;8.35;;;7.40;;
40373;SDS011;26079;45.958;12.492;2022-10-31T02:06:59;15.30;;;8.32;;
40373;SDS011;26079;45.958;12.492;2022-10-31T02:09:14;12.25;;;6.60;;
40373;SDS011;26079;45.958;12.492;2022-10-31T02:11:42;7.57;;;6.53;;
40373;SDS011;26079;45.958;12.492;2022-10-31T02:14:09;11.80;;;6.53;;
40373;SDS011;26079;45.958;12.492;2022-10-31T02:16:35;6.68;;;5.95;;
40373;SDS011;26079;45.958;12.492;2022-10-31T02:19:01;12.20;;;6.65;;
40373;SDS011;26079;45.958;12.492;2022-10-31T02:22:02;13.68;;;6.53;;
40373;SDS011;26079;45.958;12.492;2022-10-31T02:24:46;15.63;;;7.10;;
40373;SDS011;26079;45.958;12.492;2022-10-31T02:27:40;9.48;;;7.28;;
40373;SDS011;26079;45.958;12.492;2022-10-31T02:30:20;8.80;;;6.32;;
40373;SDS011;26079;45.958;12.492;2022-10-31T02:38:00;18.70;;;10.05;;
40373;SDS011;26079;45.958;12.492;2022-10-31T02:40:33;10.35;;;6.22;;
40373;SDS011;26079;45.958;12.492;2022-10-31T02:43:13;8.43;;;6.13;;
40373;SDS011;26079;45.958;12.492;2022-10-31T02:48:28;7.03;;;6.32;;
40373;SDS011;26079;45.958;12.492;2022-10-31T02:50:57;8.43;;;6.60;;
40373;SDS011;26079;45.958;12.492;2022-10-31T02:53:25;11.02;;;6.45;;
40373;SDS011;26079;45.958;12.492;2022-10-31T02:56:08;9.55;;;7.63;;
40373;SDS011;26079;45.958;12.492;2022-10-31T02:58:48;7.22;;;6.53;;
40373;SDS011;26079;45.958;12.492;2022-10-31T03:01:23;9.32;;;6.40;;
40373;SDS011;26079;45.958;12.492;2022-10-31T03:03:53;7.88;;;7.07;;
40373;SDS011;26079;45.958;12.492;2022-10-31T03:06:30;8.32;;;7.20;;
40373;SDS011;26079;45.958;12.492;2022-10-31T03:09:11;9.93;;;6.38;;
40373;SDS011;26079;45.958;12.492;2022-10-31T03:14:49;7.45;;;6.57;;
40373;SDS011;26079;45.958;12.492;2022-10-31T03:17:53;6.43;;;5.68;;
40373;SDS011;26079;45.958;12.492;2022-10-31T03:20:11;8.98;;;5.65;;
40373;SDS011;26079;45.958;12.492;2022-10-31T03:22:38;9.02;;;7.22;;
40373;SDS011;26079;45.958;12.492;2022-10-31T03:25:07;9.10;;;6.72;;
40373;SDS011;26079;45.958;12.492;2022-10-31T03:27:34;9.45;;;5.82;;
40373;SDS011;26079;45.958;12.492;2022-10-31T03:30:03;7.78;;;5.05;;
40373;SDS011;26079;45.958;12.492;2022-10-31T03:32:43;15.60;;;6.32;;
40373;SDS011;26079;45.958;12.492;2022-10-31T03:35:13;7.30;;;6.20;;
40373;SDS011;26079;45.958;12.492;2022-10-31T03:37:42;6.65;;;4.85;;
40373;SDS011;26079;45.958;12.492;2022-10-31T03:40:08;6.60;;;4.72;;
40373;SDS011;26079;45.958;12.492;2022-10-31T03:42:38;10.88;;;6.28;;
40373;SDS011;26079;45.958;12.492;2022-10-31T03:47:34;6.07;;;4.90;;
40373;SDS011;26079;45.958;12.492;2022-10-31T03:50:03;7.32;;;5.93;;
40373;SDS011;26079;45.958;12.492;2022-10-31T03:52:39;6.63;;;5.45;;
40373;SDS011;26079;45.958;12.492;2022-10-31T03:55:23;6.93;;;4.88;;
40373;SDS011;26079;45.958;12.492;2022-10-31T03:58:32;9.85;;;7.07;;
40373;SDS011;26079;45.958;12.492;2022-10-31T04:00:54;6.25;;;4.72;;
40373;SDS011;26079;45.958;12.492;2022-10-31T04:03:22;8.32;;;5.32;;
40373;SDS011;26079;45.958;12.492;2022-10-31T04:05:52;10.20;;;5.97;;
40373;SDS011;26079;45.958;12.492;2022-10-31T04:08:23;18.48;;;8.52;;
40373;SDS011;26079;45.958;12.492;2022-10-31T04:10:52;7.25;;;5.45;;
40373;SDS011;26079;45.958;12.492;2022-10-31T04:13:24;6.90;;;5.30;;
40373;SDS011;26079;45.958;12.492;2022-10-31T04:15:54;10.18;;;5.53;;
40373;SDS011;26079;45.958;12.492;2022-10-31T04:18:21;7.72;;;5.60;;
40373;SDS011;26079;45.958;12.492;2022-10-31T04:20:48;6.10;;;4.70;;
40373;SDS011;26079;45.958;12.492;2022-10-31T04:23:24;6.35;;;4.85;;
40373;SDS011;26079;45.958;12.492;2022-10-31T04:25:51;7.78;;;5.55;;
40373;SDS011;26079;45.958;12.492;2022-10-31T04:28:17;9.35;;;6.05;;
40373;SDS011;26079;45.958;12.492;2022-10-31T04:30:43;6.25;;;5.47;;
40373;SDS011;26079;45.958;12.492;2022-10-31T04:33:08;5.95;;;5.32;;
40373;SDS011;26079;45.958;12.492;2022-10-31T04:35:34;13.23;;;4.55;;
40373;SDS011;26079;45.958;12.492;2022-10-31T04:38:00;5.68;;;5.03;;
40373;SDS011;26079;45.958;12.492;2022-10-31T04:40:26;8.55;;;6.80;;
40373;SDS011;26079;45.958;12.492;2022-10-31T04:42:51;4.90;;;4.40;;
40373;SDS011;26079;45.958;12.492;2022-10-31T04:45:17;7.47;;;4.57;;
40373;SDS011;26079;45.958;12.492;2022-10-31T04:47:43;6.63;;;5.40;;
40373;SDS011;26079;45.958;12.492;2022-10-31T04:50:08;5.60;;;4.63;;
40373;SDS011;26079;45.958;12.492;2022-10-31T04:52:41;8.00;;;5.28;;
40373;SDS011;26079;45.958;12.492;2022-10-31T04:55:08;7.95;;;4.93;;
40373;SDS011;26079;45.958;12.492;2022-10-31T04:57:41;5.53;;;4.38;;
40373;SDS011;26079;45.958;12.492;2022-10-31T05:00:07;6.95;;;4.93;;
40373;SDS011;26079;45.958;12.492;2022-10-31T05:02:33;7.47;;;4.25;;
40373;SDS011;26079;45.958;12.492;2022-10-31T05:04:59;6.45;;;4.03;;
40373;SDS011;26079;45.958;12.492;2022-10-31T05:07:25;5.05;;;4.55;;
40373;SDS011;26079;45.958;12.492;2022-10-31T05:09:50;11.77;;;6.63;;
40373;SDS011;26079;45.958;12.492;2022-10-31T05:12:16;8.15;;;5.95;;
40373;SDS011;26079;45.958;12.492;2022-10-31T05:14:42;7.78;;;4.32;;
40373;SDS011;26079;45.958;12.492;2022-10-31T05:17:07;8.63;;;4.55;;
40373;SDS011;26079;45.958;12.492;2022-10-31T05:19:33;10.82;;;4.75;;
40373;SDS011;26079;45.958;12.492;2022-10-31T05:21:58;5.97;;;5.03;;
40373;SDS011;26079;45.958;12.492;2022-10-31T05:24:24;4.93;;;4.00;;
40373;SDS011;26079;45.958;12.492;2022-10-31T05:26:50;10.43;;;5.10;;
40373;SDS011;26079;45.958;12.492;2022-10-31T05:29:15;5.25;;;3.83;;
40373;SDS011;26079;45.958;12.492;2022-10-31T05:31:41;6.28;;;4.60;;
40373;SDS011;26079;45.958;12.492;2022-10-31T05:34:06;10.20;;;4.65;;
40373;SDS011;26079;45.958;12.492;2022-10-31T05:36:32;13.82;;;4.60;;
40373;SDS011;26079;45.958;12.492;2022-10-31T05:39:01;12.55;;;4.93;;
40373;SDS011;26079;45.958;12.492;2022-10-31T05:41:26;7.97;;;3.92;;
40373;SDS011;26079;45.958;12.492;2022-10-31T05:43:52;5.53;;;4.50;;
40373;SDS011;26079;45.958;12.492;2022-10-31T05:46:17;7.07;;;3.75;;
40373;SDS011;26079;45.958;12.492;2022-10-31T05:48:43;7.00;;;4.90;;
40373;SDS011;26079;45.958;12.492;2022-10-31T05:51:09;4.55;;;3.90;;
40373;SDS011;26079;45.958;12.492;2022-10-31T05:53:34;9.18;;;3.97;;
40373;SDS011;26079;45.958;12.492;2022-10-31T05:56:00;9.07;;;4.68;;
40373;SDS011;26079;45.958;12.492;2022-10-31T05:58:25;4.70;;;3.92;;
40373;SDS011;26079;45.958;12.492;2022-10-31T06:00:51;5.53;;;4.45;;
40373;SDS011;26079;45.958;12.492;2022-10-31T06:03:18;7.15;;;4.25;;
40373;SDS011;26079;45.958;12.492;2022-10-31T06:05:43;6.50;;;4.15;;
40373;SDS011;26079;45.958;12.492;2022-10-31T06:08:15;14.93;;;6.32;;
40373;SDS011;26079;45.958;12.492;2022-10-31T06:10:41;15.10;;;5.28;;
40373;SDS011;26079;45.958;12.492;2022-10-31T06:13:06;6.32;;;3.70;;
40373;SDS011;26079;45.958;12.492;2022-10-31T06:15:32;4.70;;;4.07;;
40373;SDS011;26079;45.958;12.492;2022-10-31T06:18:02;8.95;;;5.10;;
40373;SDS011;26079;45.958;12.492;2022-10-31T06:22:57;7.13;;;4.55;;
40373;SDS011;26079;45.958;12.492;2022-10-31T06:25:23;5.10;;;3.28;;
40373;SDS011;26079;45.958;12.492;2022-10-31T06:27:49;6.40;;;4.13;;
40373;SDS011;26079;45.958;12.492;2022-10-31T06:30:15;9.02;;;4.50;;
40373;SDS011;26079;45.958;12.492;2022-10-31T06:32:40;6.55;;;3.92;;
40373;SDS011;26079;45.958;12.492;2022-10-31T06:35:06;9.52;;;4.93;;
40373;SDS011;26079;45.958;12.492;2022-10-31T06:37:35;6.38;;;3.80;;
40373;SDS011;26079;45.958;12.492;2022-10-31T06:40:01;5.78;;;4.60;;
40373;SDS011;26079;45.958;12.492;2022-10-31T06:42:27;9.57;;;5.60;;
40373;SDS011;26079;45.958;12.492;2022-10-31T06:44:53;9.43;;;5.70;;
40373;SDS011;26079;45.958;12.492;2022-10-31T06:47:19;13.50;;;5.57;;
40373;SDS011;26079;45.958;12.492;2022-10-31T06:49:44;11.50;;;5.65;;
40373;SDS011;26079;45.958;12.492;2022-10-31T06:52:10;5.72;;;4.70;;
40373;SDS011;26079;45.958;12.492;2022-10-31T06:54:35;5.63;;;4.90;;
40373;SDS011;26079;45.958;12.492;2022-10-31T06:57:01;10.65;;;5.15;;
40373;SDS011;26079;45.958;12.492;2022-10-31T06:59:27;8.85;;;4.93;;
40373;SDS011;26079;45.958;12.492;2022-10-31T07:01:52;6.13;;;4.75;;
40373;SDS011;26079;45.958;12.492;2022-10-31T07:04:18;9.23;;;6.03;;
40373;SDS011;26079;45.958;12.492;2022-10-31T07:06:44;9.18;;;5.13;;
40373;SDS011;26079;45.958;12.492;2022-10-31T07:09:09;7.18;;;4.55;;
40373;SDS011;26079;45.958;12.492;2022-10-31T07:11:35;8.82;;;5.30;;
40373;SDS011;26079;45.958;12.492;2022-10-31T07:14:01;8.70;;;5.68;;
40373;SDS011;26079;45.958;12.492;2022-10-31T07:16:26;9.52;;;5.57;;
40373;SDS011;26079;45.958;12.492;2022-10-31T07:18:52;9.50;;;7.90;;
40373;SDS011;26079;45.958;12.492;2022-10-31T07:21:18;9.10;;;6.15;;
40373;SDS011;26079;45.958;12.492;2022-10-31T07:23:43;11.90;;;5.75;;
40373;SDS011;26079;45.958;12.492;2022-10-31T07:26:11;14.18;;;6.88;;
40373;SDS011;26079;45.958;12.492;2022-10-31T07:28:37;15.95;;;6.85;;
40373;SDS011;26079;45.958;12.492;2022-10-31T07:31:03;11.85;;;7.30;;
40373;SDS011;26079;45.958;12.492;2022-10-31T07:33:28;7.63;;;5.95;;
40373;SDS011;26079;45.958;12.492;2022-10-31T07:35:54;29.52;;;20.08;;
40373;SDS011;26079;45.958;12.492;2022-10-31T07:38:20;36.20;;;24.60;;
40373;SDS011;26079;45.958;12.492;2022-10-31T07:40:49;25.42;;;17.77;;
40373;SDS011;26079;45.958;12.492;2022-10-31T07:43:16;19.85;;;17.75;;
40373;SDS011;26079;45.958;12.492;2022-10-31T07:45:42;30.40;;;21.55;;
40373;SDS011;26079;45.958;12.492;2022-10-31T07:48:08;19.60;;;17.55;;
40373;SDS011;26079;45.958;12.492;2022-10-31T07:50:33;15.88;;;12.25;;
40373;SDS011;26079;45.958;12.492;2022-10-31T07:55:30;15.23;;;10.65;;
40373;SDS011;26079;45.958;12.492;2022-10-31T07:57:56;14.18;;;11.88;;
40373;SDS011;26079;45.958;12.492;2022-10-31T08:00:23;27.55;;;24.75;;
40373;SDS011;26079;45.958;12.492;2022-10-31T08:02:55;43.15;;;36.95;;
40373;SDS011;26079;45.958;12.492;2022-10-31T08:05:22;59.58;;;53.75;;
40373;SDS011;26079;45.958;12.492;2022-10-31T08:07:48;40.00;;;34.20;;
40373;SDS011;26079;45.958;12.492;2022-10-31T08:10:13;25.45;;;16.40;;
40373;SDS011;26079;45.958;12.492;2022-10-31T08:12:39;22.48;;;14.38;;
40373;SDS011;26079;45.958;12.492;2022-10-31T08:15:05;39.05;;;25.45;;
40373;SDS011;26079;45.958;12.492;2022-10-31T08:17:34;20.35;;;14.77;;
40373;SDS011;26079;45.958;12.492;2022-10-31T08:20:00;21.55;;;15.75;;
40373;SDS011;26079;45.958;12.492;2022-10-31T08:22:26;26.13;;;13.60;;
40373;SDS011;26079;45.958;12.492;2022-10-31T08:24:52;21.83;;;14.90;;
40373;SDS011;26079;45.958;12.492;2022-10-31T08:27:17;27.42;;;15.13;;
40373;SDS011;26079;45.958;12.492;2022-10-31T08:29:44;18.30;;;12.13;;
40373;SDS011;26079;45.958;12.492;2022-10-31T08:32:10;18.70;;;12.30;;
40373;SDS011;26079;45.958;12.492;2022-10-31T08:34:36;20.23;;;12.15;;
40373;SDS011;26079;45.958;12.492;2022-10-31T08:37:01;23.10;;;12.15;;
40373;SDS011;26079;45.958;12.492;2022-10-31T08:39:27;17.77;;;10.75;;
40373;SDS011;26079;45.958;12.492;2022-10-31T08:41:53;16.30;;;11.13;;
40373;SDS011;26079;45.958;12.492;2022-10-31T08:44:18;19.20;;;11.80;;
40373;SDS011;26079;45.958;12.492;2022-10-31T08:46:44;16.05;;;9.60;;
40373;SDS011;26079;45.958;12.492;2022-10-31T08:49:10;17.45;;;11.00;;
40373;SDS011;26079;45.958;12.492;2022-10-31T08:51:35;30.27;;;22.45;;
40373;SDS011;26079;45.958;12.492;2022-10-31T08:54:01;19.05;;;16.98;;
40373;SDS011;26079;45.958;12.492;2022-10-31T08:56:26;27.83;;;15.27;;
40373;SDS011;26079;45.958;12.492;2022-10-31T08:58:53;22.23;;;13.38;;
40373;SDS011;26079;45.958;12.492;2022-10-31T09:01:19;24.92;;;12.90;;
40373;SDS011;26079;45.958;12.492;2022-10-31T09:03:44;18.10;;;11.45;;
40373;SDS011;26079;45.958;12.492;2022-10-31T09:06:10;20.38;;;13.55;;
40373;SDS011;26079;45.958;12.492;2022-10-31T09:08:36;21.63;;;11.93;;
40373;SDS011;26079;45.958;12.492;2022-10-31T09:11:02;19.20;;;12.98;;
40373;SDS011;26079;45.958;12.492;2022-10-31T09:13:28;20.77;;;13.65;;
40373;SDS011;26079;45.958;12.492;2022-10-31T09:15:55;20.90;;;13.60;;
40373;SDS011;26079;45.958;12.492;2022-10-31T09:18:23;28.13;;;16.52;;
40373;SDS011;26079;45.958;12.492;2022-10-31T09:20:50;22.00;;;15.32;;
40373;SDS011;26079;45.958;12.492;2022-10-31T09:23:17;22.02;;;16.70;;
40373;SDS011;26079;45.958;12.492;2022-10-31T09:25:45;20.63;;;14.18;;
40373;SDS011;26079;45.958;12.492;2022-10-31T09:28:14;20.48;;;14.38;;
40373;SDS011;26079;45.958;12.492;2022-10-31T09:30:41;21.33;;;13.98;;
40373;SDS011;26079;45.958;12.492;2022-10-31T09:33:09;17.35;;;12.15;;
40373;SDS011;26079;45.958;12.492;2022-10-31T09:35:36;14.82;;;11.55;;
40373;SDS011;26079;45.958;12.492;2022-10-31T09:38:03;20.58;;;12.65;;
40373;SDS011;26079;45.958;12.492;2022-10-31T09:40:32;18.80;;;13.18;;
40373;SDS011;26079;45.958;12.492;2022-10-31T09:43:12;19.92;;;13.68;;
40373;SDS011;26079;45.958;12.492;2022-10-31T09:46:15;16.30;;;13.48;;
40373;SDS011;26079;45.958;12.492;2022-10-31T09:49:14;20.30;;;13.93;;
40373;SDS011;26079;45.958;12.492;2022-10-31T09:51:55;18.13;;;14.68;;
40373;SDS011;26079;45.958;12.492;2022-10-31T09:56:55;18.75;;;14.45;;
40373;SDS011;26079;45.958;12.492;2022-10-31T09:59:30;20.40;;;15.35;;
40373;SDS011;26079;45.958;12.492;2022-10-31T10:02:00;17.90;;;14.32;;
40373;SDS011;26079;45.958;12.492;2022-10-31T10:07:07;19.23;;;13.82;;
40373;SDS011;26079;45.958;12.492;2022-10-31T10:09:44;23.58;;;15.15;;
40373;SDS011;26079;45.958;12.492;2022-10-31T10:17:26;26.80;;;19.95;;
40373;SDS011;26079;45.958;12.492;2022-10-31T10:25:53;16.20;;;14.02;;
40373;SDS011;26079;45.958;12.492;2022-10-31T10:28:28;20.17;;;15.48;;
40373;SDS011;26079;45.958;12.492;2022-10-31T10:33:56;24.85;;;15.25;;
40373;SDS011;26079;45.958;12.492;2022-10-31T10:36:39;22.33;;;14.90;;
40373;SDS011;26079;45.958;12.492;2022-10-31T10:39:29;19.75;;;15.40;;
40373;SDS011;26079;45.958;12.492;2022-10-31T10:41:59;21.03;;;15.03;;
40373;SDS011;26079;45.958;12.492;2022-10-31T10:44:45;19.52;;;14.25;;
40373;SDS011;26079;45.958;12.492;2022-10-31T10:47:37;25.70;;;15.43;;
40373;SDS011;26079;45.958;12.492;2022-10-31T10:50:12;19.48;;;12.90;;
40373;SDS011;26079;45.958;12.492;2022-10-31T10:58:06;19.13;;;12.63;;
40373;SDS011;26079;45.958;12.492;2022-10-31T11:00:43;22.60;;;15.18;;
40373;SDS011;26079;45.958;12.492;2022-10-31T11:03:14;28.27;;;15.05;;
40373;SDS011;26079;45.958;12.492;2022-10-31T11:05:54;21.20;;;15.07;;
40373;SDS011;26079;45.958;12.492;2022-10-31T11:08:25;20.95;;;13.10;;
40373;SDS011;26079;45.958;12.492;2022-10-31T11:13:33;18.23;;;12.13;;
40373;SDS011;26079;45.958;12.492;2022-10-31T11:18:51;14.85;;;9.10;;
40373;SDS011;26079;45.958;12.492;2022-10-31T11:21:21;18.58;;;13.27;;
40373;SDS011;26079;45.958;12.492;2022-10-31T11:24:02;16.27;;;11.93;;
40373;SDS011;26079;45.958;12.492;2022-10-31T11:26:29;12.65;;;10.35;;
40373;SDS011;26079;45.958;12.492;2022-10-31T11:28:58;22.23;;;11.50;;
40373;SDS011;26079;45.958;12.492;2022-10-31T11:31:24;20.67;;;10.73;;
40373;SDS011;26079;45.958;12.492;2022-10-31T11:34:01;18.35;;;11.77;;
40373;SDS011;26079;45.958;12.492;2022-10-31T11:36:30;21.58;;;11.10;;
40373;SDS011;26079;45.958;12.492;2022-10-31T11:38:59;14.73;;;10.75;;
40373;SDS011;26079;45.958;12.492;2022-10-31T11:41:31;22.92;;;11.38;;
40373;SDS011;26079;45.958;12.492;2022-10-31T11:44:00;14.50;;;10.32;;
40373;SDS011;26079;45.958;12.492;2022-10-31T11:48:54;11.43;;;9.32;;
40373;SDS011;26079;45.958;12.492;2022-10-31T11:51:25;12.32;;;9.48;;
40373;SDS011;26079;45.958;12.492;2022-10-31T11:53:54;16.67;;;10.77;;
40373;SDS011;26079;45.958;12.492;2022-10-31T11:56:23;15.05;;;9.93;;
40373;SDS011;26079;45.958;12.492;2022-10-31T11:59:02;16.90;;;11.07;;
40373;SDS011;26079;45.958;12.492;2022-10-31T12:01:30;19.77;;;9.65;;
40373;SDS011;26079;45.958;12.492;2022-10-31T12:04:01;18.05;;;10.95;;
40373;SDS011;26079;45.958;12.492;2022-10-31T12:06:36;12.85;;;9.30;;
40373;SDS011;26079;45.958;12.492;2022-10-31T12:09:16;14.05;;;9.13;;
40373;SDS011;26079;45.958;12.492;2022-10-31T12:14:21;13.88;;;9.48;;
40373;SDS011;26079;45.958;12.492;2022-10-31T12:16:59;15.07;;;8.65;;
40373;SDS011;26079;45.958;12.492;2022-10-31T12:30:49;10.38;;;7.90;;
40373;SDS011;26079;45.958;12.492;2022-10-31T12:39:17;15.00;;;9.20;;
40373;SDS011;26079;45.958;12.492;2022-10-31T12:50:50;13.95;;;9.90;;
40373;SDS011;26079;45.958;12.492;2022-10-31T12:58:54;14.57;;;8.63;;
40373;SDS011;26079;45.958;12.492;2022-10-31T13:04:05;12.48;;;8.43;;
40373;SDS011;26079;45.958;12.492;2022-10-31T13:06:55;15.40;;;11.43;;
40373;SDS011;26079;45.958;12.492;2022-10-31T13:09:26;14.52;;;8.50;;
40373;SDS011;26079;45.958;12.492;2022-10-31T13:11:58;11.60;;;7.85;;
40373;SDS011;26079;45.958;12.492;2022-10-31T13:16:58;18.75;;;10.45;;
40373;SDS011;26079;45.958;12.492;2022-10-31T13:19:27;16.63;;;8.55;;
40373;SDS011;26079;45.958;12.492;2022-10-31T13:22:09;13.02;;;7.80;;
40373;SDS011;26079;45.958;12.492;2022-10-31T13:30:19;21.65;;;8.68;;
40373;SDS011;26079;45.958;12.492;2022-10-31T13:38:20;14.93;;;10.10;;
40373;SDS011;26079;45.958;12.492;2022-10-31T13:43:26;18.75;;;9.27;;
40373;SDS011;26079;45.958;12.492;2022-10-31T13:48:36;14.13;;;8.80;;
40373;SDS011;26079;45.958;12.492;2022-10-31T13:51:08;13.00;;;8.60;;
40373;SDS011;26079;45.958;12.492;2022-10-31T13:56:22;15.50;;;10.48;;
40373;SDS011;26079;45.958;12.492;2022-10-31T13:58:56;17.30;;;10.75;;
40373;SDS011;26079;45.958;12.492;2022-10-31T14:01:46;16.92;;;9.80;;
40373;SDS011;26079;45.958;12.492;2022-10-31T14:04:28;21.52;;;10.80;;
40373;SDS011;26079;45.958;12.492;2022-10-31T14:07:06;13.38;;;9.52;;
40373;SDS011;26079;45.958;12.492;2022-10-31T14:31:53;13.27;;;10.98;;
40373;SDS011;26079;45.958;12.492;2022-10-31T14:34:26;16.15;;;11.70;;
40373;SDS011;26079;45.958;12.492;2022-10-31T14:45:17;17.98;;;12.27;;
40373;SDS011;26079;45.958;12.492;2022-10-31T14:47:51;18.73;;;11.75;;
40373;SDS011;26079;45.958;12.492;2022-10-31T14:50:54;19.90;;;12.32;;
40373;SDS011;26079;45.958;12.492;2022-10-31T14:55:59;20.50;;;10.80;;
40373;SDS011;26079;45.958;12.492;2022-10-31T15:00:57;19.02;;;10.00;;
40373;SDS011;26079;45.958;12.492;2022-10-31T15:03:25;15.70;;;11.48;;
40373;SDS011;26079;45.958;12.492;2022-10-31T15:06:01;19.20;;;10.50;;
40373;SDS011;26079;45.958;12.492;2022-10-31T15:08:49;21.60;;;11.98;;
40373;SDS011;26079;45.958;12.492;2022-10-31T15:16:14;15.60;;;13.00;;
40373;SDS011;26079;45.958;12.492;2022-10-31T15:18:53;18.27;;;12.88;;
40373;SDS011;26079;45.958;12.492;2022-10-31T15:21:25;18.13;;;12.45;;
40373;SDS011;26079;45.958;12.492;2022-10-31T15:23:53;16.85;;;12.75;;
40373;SDS011;26079;45.958;12.492;2022-10-31T15:26:26;18.02;;;10.70;;
40373;SDS011;26079;45.958;12.492;2022-10-31T15:29:04;14.55;;;11.98;;
40373;SDS011;26079;45.958;12.492;2022-10-31T15:31:31;20.15;;;12.48;;
40373;SDS011;26079;45.958;12.492;2022-10-31T15:33:59;16.15;;;12.82;;
40373;SDS011;26079;45.958;12.492;2022-10-31T15:36:49;19.77;;;11.77;;
40373;SDS011;26079;45.958;12.492;2022-10-31T15:39:15;19.88;;;12.85;;
40373;SDS011;26079;45.958;12.492;2022-10-31T15:41:49;23.15;;;12.23;;
40373;SDS011;26079;45.958;12.492;2022-10-31T15:44:24;16.00;;;10.80;;
40373;SDS011;26079;45.958;12.492;2022-10-31T15:46:57;17.65;;;13.25;;
40373;SDS011;26079;45.958;12.492;2022-10-31T15:52:03;16.85;;;12.93;;
40373;SDS011;26079;45.958;12.492;2022-10-31T15:54:34;19.48;;;16.08;;
40373;SDS011;26079;45.958;12.492;2022-10-31T15:57:01;20.05;;;14.20;;
40373;SDS011;26079;45.958;12.492;2022-10-31T15:59:27;23.58;;;17.13;;
40373;SDS011;26079;45.958;12.492;2022-10-31T16:01:55;27.15;;;19.35;;
40373;SDS011;26079;45.958;12.492;2022-10-31T16:04:25;26.35;;;17.10;;
40373;SDS011;26079;45.958;12.492;2022-10-31T16:12:17;24.05;;;15.25;;
40373;SDS011;26079;45.958;12.492;2022-10-31T16:14:43;25.33;;;17.10;;
40373;SDS011;26079;45.958;12.492;2022-10-31T16:17:13;24.13;;;14.38;;
40373;SDS011;26079;45.958;12.492;2022-10-31T16:22:20;19.88;;;12.73;;
40373;SDS011;26079;45.958;12.492;2022-10-31T16:27:23;22.60;;;14.30;;
40373;SDS011;26079;45.958;12.492;2022-10-31T16:29:53;19.65;;;13.13;;
40373;SDS011;26079;45.958;12.492;2022-10-31T16:37:36;16.70;;;12.30;;
40373;SDS011;26079;45.958;12.492;2022-10-31T16:40:02;19.88;;;12.90;;
40373;SDS011;26079;45.958;12.492;2022-10-31T16:42:28;22.40;;;13.98;;
40373;SDS011;26079;45.958;12.492;2022-10-31T16:44:54;24.70;;;15.35;;
40373;SDS011;26079;45.958;12.492;2022-10-31T16:47:20;29.27;;;14.13;;
40373;SDS011;26079;45.958;12.492;2022-10-31T16:49:49;23.52;;;14.45;;
40373;SDS011;26079;45.958;12.492;2022-10-31T16:52:18;24.30;;;14.93;;
40373;SDS011;26079;45.958;12.492;2022-10-31T16:54:43;24.50;;;15.63;;
40373;SDS011;26079;45.958;12.492;2022-10-31T16:57:16;23.70;;;13.82;;
40373;SDS011;26079;45.958;12.492;2022-10-31T16:59:46;22.02;;;13.68;;
40373;SDS011;26079;45.958;12.492;2022-10-31T17:02:16;18.02;;;13.55;;
40373;SDS011;26079;45.958;12.492;2022-10-31T17:04:42;19.98;;;13.88;;
40373;SDS011;26079;45.958;12.492;2022-10-31T17:07:08;19.83;;;13.70;;
40373;SDS011;26079;45.958;12.492;2022-10-31T17:09:35;16.73;;;12.70;;
40373;SDS011;26079;45.958;12.492;2022-10-31T17:12:01;17.92;;;13.75;;
40373;SDS011;26079;45.958;12.492;2022-10-31T17:14:27;25.25;;;13.68;;
40373;SDS011;26079;45.958;12.492;2022-10-31T17:16:53;21.13;;;13.52;;
40373;SDS011;26079;45.958;12.492;2022-10-31T17:19:19;24.80;;;16.65;;
40373;SDS011;26079;45.958;12.492;2022-10-31T17:21:44;22.42;;;16.17;;
40373;SDS011;26079;45.958;12.492;2022-10-31T17:24:11;28.15;;;18.60;;
40373;SDS011;26079;45.958;12.492;2022-10-31T17:26:39;24.42;;;18.90;;